Aviation Digital Data Service (ADDS)

Output produced by METARs form (1333 UTC 24 August 2019)
found at http://www.aviationweather.gov/metar/data/
 
Forecast for: VTSB (SURAT THANI , TH)
Text: TAF VTSB 241100Z 2412/2512 24007KT 9999 FEW020
Forecast period: 1200 UTC 24 August 2019 to 1200 UTC 25 August 2019
Forecast type: FROM: standard forecast or significant change
Winds: from the WSW (240 degrees) at 8 MPH (7 knots; 3.6 m/s)
Visibility: 6 or more miles 10+ km)
Ceiling: at least 12,000 feet AGL
Clouds: few clouds at 2000 feet AGL
Weather: no significant weather forecast for this period
Text: TEMPO 2415/2421 5000 RA SCT015 BKN100
Forecast period: 1500 to 2100 UTC 24 August 2019
Forecast type: TEMPORARY: The following changes expected for less than half the time period
Visibility: 3 miles (5 km)
Ceiling: 10000 feet AGL
Clouds: scattered clouds at 1500 feet AGL
broken clouds at 10000 feet AGL
Weather: RA  (moderate rain)
Text: TEMPO 2505/2511 23010G20KT 5000 TSRA FEW016CB SCT018 BKN100
Forecast period: 0500 to 1100 UTC 25 August 2019
Forecast type: TEMPORARY: The following changes expected for less than half the time period
Winds: from the SW (230 degrees) at 12 MPH (10 knots; 5.1 m/s)
gusting to 23 MPH (20 knots; 10.3 m/s)
Visibility: 3 miles (5 km)
Ceiling: 10000 feet AGL
Clouds: few clouds at 1600 feet AGL
scattered clouds at 1800 feet AGL
broken clouds at 10000 feet AGL
Weather: TSRA  (rain associated with thunderstorm(s))